createdAt,value
2022-11-05T00:06:49.010Z,2.08
2022-11-05T00:09:28.908Z,2.70
2022-11-05T00:15:32.150Z,2.50
2022-11-05T00:17:58.818Z,3.42
2022-11-05T00:20:26.556Z,2.63
2022-11-05T00:23:23.551Z,2.55
2022-11-05T00:26:00.096Z,3.03
2022-11-05T00:28:29.706Z,3.17
2022-11-05T00:31:04.927Z,3.20
2022-11-05T00:33:31.972Z,3.50
2022-11-05T00:35:58.565Z,2.78
2022-11-05T00:38:25.589Z,2.13
2022-11-05T00:40:55.362Z,3.08
2022-11-05T00:43:40.328Z,2.50
2022-11-05T00:46:07.196Z,2.67
2022-11-05T00:48:52.439Z,3.40
2022-11-05T00:51:19.128Z,3.47
2022-11-05T00:53:49.696Z,3.33
2022-11-05T00:56:16.539Z,4.10
2022-11-05T00:58:43.382Z,3.70
2022-11-05T01:01:10.852Z,3.75
2022-11-05T01:03:40.076Z,3.63
2022-11-05T01:06:12.071Z,3.38
2022-11-05T01:08:39.494Z,3.92
2022-11-05T01:11:36.237Z,3.45
2022-11-05T01:14:09.576Z,3.63
2022-11-05T01:16:37.018Z,4.07
2022-11-05T01:19:05.831Z,3.83
2022-11-05T01:21:32.815Z,3.60
2022-11-05T01:24:12.259Z,3.45
2022-11-05T01:26:38.905Z,4.15
2022-11-05T01:29:06.254Z,3.70
2022-11-05T01:31:36.736Z,3.55
2022-11-05T01:36:57.375Z,3.25
2022-11-05T01:39:31.668Z,4.00
2022-11-05T01:42:23.599Z,4.88
2022-11-05T01:45:09.306Z,4.57
2022-11-05T01:47:49.660Z,5.00
2022-11-05T01:50:40.962Z,4.70
2022-11-05T01:53:22.470Z,4.60
2022-11-05T01:55:58.152Z,4.82
2022-11-05T01:58:28.169Z,4.80
2022-11-05T02:00:56.018Z,5.13
2022-11-05T02:03:23.983Z,4.70
2022-11-05T02:05:54.617Z,5.38
2022-11-05T02:08:43.679Z,5.35
2022-11-05T02:11:16.660Z,5.30
2022-11-05T02:13:50.697Z,4.50
2022-11-05T02:16:33.716Z,4.22
2022-11-05T02:19:38.721Z,4.55
2022-11-05T02:22:24.105Z,4.90
2022-11-05T02:25:12.727Z,5.45
2022-11-05T02:28:19.071Z,6.15
2022-11-05T02:31:04.721Z,6.25
2022-11-05T02:33:58.900Z,5.80
2022-11-05T02:36:53.730Z,6.20
2022-11-05T02:39:48.830Z,5.75
2022-11-05T02:42:33.867Z,5.72
2022-11-05T02:45:06.481Z,5.75
2022-11-05T02:47:33.137Z,5.80
2022-11-05T02:50:30.394Z,5.22
2022-11-05T02:53:19.245Z,5.43
2022-11-05T02:56:08.766Z,5.78
2022-11-05T02:58:40.892Z,6.13
2022-11-05T03:01:11.793Z,6.35
2022-11-05T03:03:44.363Z,6.75
2022-11-05T03:06:11.411Z,6.22
2022-11-05T03:08:54.718Z,6.30
2022-11-05T03:11:27.991Z,5.72
2022-11-05T03:14:05.866Z,5.68
2022-11-05T03:16:43.172Z,6.45
2022-11-05T03:19:36.802Z,6.63
2022-11-05T03:22:10.513Z,6.30
2022-11-05T03:24:43.453Z,5.72
2022-11-05T03:27:28.870Z,6.18
2022-11-05T03:30:02.380Z,5.45
2022-11-05T03:38:40.692Z,4.85
2022-11-05T03:41:11.605Z,4.72
2022-11-05T03:43:49.630Z,4.93
2022-11-05T03:46:22.935Z,4.60
2022-11-05T03:48:54.541Z,5.40
2022-11-05T03:52:21.437Z,4.38
2022-11-05T03:54:51.922Z,5.20
2022-11-05T03:57:27.841Z,4.97
2022-11-05T03:59:56.713Z,4.35
2022-11-05T04:02:26.009Z,4.40
2022-11-05T04:05:06.464Z,5.15
2022-11-05T04:07:57.650Z,5.13
2022-11-05T04:16:48.473Z,4.78
2022-11-05T04:19:37.200Z,4.40
2022-11-05T04:22:42.467Z,4.57
2022-11-05T04:25:12.515Z,4.55
2022-11-05T04:27:39.637Z,4.45
2022-11-05T04:30:19.159Z,4.95
2022-11-05T04:33:10.492Z,4.75
2022-11-05T04:35:42.405Z,4.55
2022-11-05T04:38:14.923Z,4.55
2022-11-05T04:40:42.019Z,4.60
2022-11-05T04:43:15.120Z,5.80
2022-11-05T04:46:07.934Z,5.30
2022-11-05T04:48:34.663Z,5.22
2022-11-05T04:51:09.089Z,5.30
2022-11-05T04:53:39.986Z,5.50
2022-11-05T04:56:18.536Z,5.43
2022-11-05T04:58:45.852Z,5.03
2022-11-05T05:01:22.902Z,4.57
2022-11-05T05:03:54.661Z,5.30
2022-11-05T05:06:21.786Z,5.10
2022-11-05T05:08:53.091Z,5.82
2022-11-05T05:11:21.824Z,5.43
2022-11-05T05:13:50.085Z,5.40
2022-11-05T05:16:25.178Z,5.43
2022-11-05T05:18:52.323Z,5.78
2022-11-05T05:21:41.578Z,5.40
2022-11-05T05:24:16.287Z,5.85
2022-11-05T05:26:47.119Z,5.63
2022-11-05T05:29:14.332Z,5.90
2022-11-05T05:31:43.593Z,5.43
2022-11-05T05:34:12.779Z,5.13
2022-11-05T05:36:39.647Z,4.75
2022-11-05T05:39:11.336Z,5.38
2022-11-05T05:41:38.079Z,5.22
2022-11-05T05:44:05.604Z,4.28
2022-11-05T05:46:39.745Z,4.35
2022-11-05T05:49:12.449Z,4.35
2022-11-05T05:51:45.347Z,4.10
2022-11-05T05:54:12.224Z,4.70
2022-11-05T05:56:39.124Z,4.28
2022-11-05T05:59:07.030Z,4.75
2022-11-05T06:01:37.195Z,5.38
2022-11-05T06:04:04.054Z,4.07
2022-11-05T06:06:30.880Z,4.03
2022-11-05T06:08:57.551Z,3.78
2022-11-05T06:11:24.661Z,4.45
2022-11-05T06:13:54.864Z,3.60
2022-11-05T06:16:21.519Z,3.72
2022-11-05T06:18:48.331Z,4.15
2022-11-05T06:21:17.046Z,3.92
2022-11-05T06:23:49.091Z,3.40
2022-11-05T06:26:24.151Z,3.92
2022-11-05T06:28:53.128Z,3.67
2022-11-05T06:31:21.986Z,5.57
2022-11-05T06:33:48.481Z,4.45
2022-11-05T06:36:20.088Z,3.88
2022-11-05T06:38:50.765Z,5.40
2022-11-05T06:41:19.591Z,5.47
2022-11-05T06:43:50.100Z,10.80
2022-11-05T06:49:18.284Z,5.07
2022-11-05T06:51:50.140Z,5.50
2022-11-05T06:54:16.651Z,4.63
2022-11-05T06:56:49.138Z,4.88
2022-11-05T06:59:18.033Z,3.38
2022-11-05T07:01:46.673Z,4.47
2022-11-05T07:04:13.369Z,4.32
2022-11-05T07:06:42.250Z,4.30
2022-11-05T07:09:08.928Z,4.60
2022-11-05T07:11:38.056Z,3.90
2022-11-05T07:14:04.686Z,4.38
2022-11-05T07:16:31.571Z,3.05
2022-11-05T07:19:01.394Z,3.53
2022-11-05T07:21:32.201Z,4.20
2022-11-05T07:23:59.088Z,4.20
2022-11-05T07:26:30.492Z,3.97
2022-11-05T07:29:03.181Z,4.45
2022-11-05T07:31:30.514Z,3.78
2022-11-05T07:33:58.432Z,5.43
2022-11-05T07:36:32.534Z,4.30
2022-11-05T07:39:00.493Z,5.68
2022-11-05T07:41:29.046Z,5.22
2022-11-05T07:43:58.952Z,3.83
2022-11-05T07:46:25.525Z,4.40
2022-11-05T07:48:54.694Z,4.82
2022-11-05T07:51:21.308Z,6.72
2022-11-05T07:53:53.154Z,5.20
2022-11-05T07:56:20.042Z,4.80
2022-11-05T07:58:49.727Z,4.93
2022-11-05T08:01:17.409Z,5.03
2022-11-05T08:03:44.245Z,4.22
2022-11-05T08:06:10.961Z,4.18
2022-11-05T08:08:41.220Z,4.40
2022-11-05T08:11:39.108Z,3.75
2022-11-05T08:14:09.902Z,4.25
2022-11-05T08:19:33.803Z,10.63
2022-11-05T08:22:02.726Z,4.55
2022-11-05T08:24:29.411Z,3.42
2022-11-05T08:26:56.027Z,3.47
2022-11-05T08:29:22.825Z,4.28
2022-11-05T08:31:54.188Z,4.10
2022-11-05T08:34:21.295Z,3.80
2022-11-05T08:36:48.156Z,4.10
2022-11-05T08:39:18.287Z,4.20
2022-11-05T08:41:47.396Z,6.85
2022-11-05T08:44:14.031Z,7.10
2022-11-05T08:46:41.835Z,4.05
2022-11-05T08:49:08.726Z,3.53
2022-11-05T08:54:27.766Z,3.42
2022-11-05T08:56:55.578Z,3.47
2022-11-05T09:05:37.341Z,4.05
2022-11-05T09:08:12.200Z,3.42
2022-11-05T09:10:40.514Z,4.75
2022-11-05T09:13:09.645Z,5.68
2022-11-05T09:18:18.487Z,4.32
2022-11-05T09:20:46.355Z,4.10
2022-11-05T09:23:16.778Z,3.88
2022-11-05T09:25:53.183Z,6.30
2022-11-05T09:28:24.814Z,4.95
2022-11-05T09:30:52.612Z,3.88
2022-11-05T09:33:22.495Z,3.20
2022-11-05T09:35:52.692Z,3.58
2022-11-05T09:38:22.759Z,3.22
2022-11-05T09:41:07.976Z,2.97
2022-11-05T09:43:57.585Z,3.58
2022-11-05T09:46:28.084Z,3.47
2022-11-05T09:49:03.568Z,3.60
2022-11-05T09:51:30.948Z,3.40
2022-11-05T09:53:59.510Z,4.20
2022-11-05T09:56:33.282Z,4.03
2022-11-05T09:59:03.628Z,3.55
2022-11-05T10:01:35.476Z,3.38
2022-11-05T10:04:12.036Z,3.22
2022-11-05T10:06:50.364Z,3.78
2022-11-05T10:09:41.835Z,3.30
2022-11-05T10:12:16.455Z,4.93
2022-11-05T10:14:48.862Z,5.50
2022-11-05T10:17:26.018Z,4.00
2022-11-05T10:20:08.996Z,5.05
2022-11-05T10:22:36.460Z,5.10
2022-11-05T10:25:17.252Z,4.32
2022-11-05T10:27:50.915Z,3.55
2022-11-05T10:30:18.151Z,3.42
2022-11-05T10:32:49.061Z,3.25
2022-11-05T10:35:21.796Z,3.40
2022-11-05T10:40:40.956Z,3.85
2022-11-05T10:43:35.099Z,3.30
2022-11-05T10:46:33.483Z,2.90
2022-11-05T10:49:38.775Z,3.00
2022-11-05T10:52:24.325Z,5.05
2022-11-05T10:54:55.403Z,3.92
2022-11-05T10:57:36.790Z,3.72
2022-11-05T11:00:18.270Z,3.10
2022-11-05T11:03:29.785Z,3.10
2022-11-05T11:06:00.546Z,3.33
2022-11-05T11:08:29.079Z,3.55
2022-11-05T11:10:58.771Z,3.28
2022-11-05T11:13:29.356Z,2.97
2022-11-05T11:22:03.731Z,2.65
2022-11-05T11:24:38.504Z,3.20
2022-11-05T11:27:10.221Z,2.78
2022-11-05T11:29:45.174Z,4.03
2022-11-05T11:32:19.529Z,2.42
2022-11-05T11:34:52.141Z,2.63
2022-11-05T11:37:30.763Z,2.53
2022-11-05T11:40:12.285Z,2.58
2022-11-05T11:42:40.741Z,2.72
2022-11-05T11:45:33.244Z,3.63
2022-11-05T11:48:06.011Z,3.85
2022-11-05T11:50:43.844Z,3.20
2022-11-05T11:53:36.265Z,3.25
2022-11-05T11:56:14.941Z,2.92
2022-11-05T11:58:42.088Z,3.13
2022-11-05T12:01:35.808Z,2.50
2022-11-05T12:04:16.311Z,2.45
2022-11-05T12:07:02.933Z,2.47
2022-11-05T12:10:01.654Z,2.60
2022-11-05T12:12:38.195Z,2.65
2022-11-05T12:15:45.995Z,3.00
2022-11-05T12:18:37.499Z,2.92
2022-11-05T12:21:53.004Z,3.70
2022-11-05T12:25:16.971Z,2.97
2022-11-05T12:28:13.673Z,2.80
2022-11-05T12:31:04.770Z,3.38
2022-11-05T12:33:45.311Z,3.33
2022-11-05T12:37:09.787Z,3.13
2022-11-05T12:40:00.442Z,2.97
2022-11-05T12:42:31.286Z,3.22
2022-11-05T12:45:04.089Z,3.17
2022-11-05T12:50:15.946Z,3.00
2022-11-05T12:52:55.275Z,2.70
2022-11-05T12:55:26.877Z,4.55
2022-11-05T12:58:08.479Z,3.05
2022-11-05T13:00:46.617Z,3.50
2022-11-05T13:03:31.180Z,3.22
2022-11-05T13:06:14.790Z,3.10
2022-11-05T13:09:04.667Z,3.05
2022-11-05T13:11:37.917Z,2.75
2022-11-05T13:14:20.811Z,3.80
2022-11-05T13:19:27.078Z,3.42
2022-11-05T13:22:08.818Z,3.35
2022-11-05T13:24:49.293Z,3.90
2022-11-05T13:27:47.409Z,3.47
2022-11-05T13:33:33.078Z,3.38
2022-11-05T13:36:33.458Z,3.40
2022-11-05T13:39:31.271Z,4.40
2022-11-05T13:42:27.786Z,4.20
2022-11-05T13:45:28.648Z,3.10
2022-11-05T13:48:34.856Z,3.35
2022-11-05T13:51:40.259Z,2.78
2022-11-05T13:54:27.149Z,3.35
2022-11-05T13:57:06.268Z,3.63
2022-11-05T14:00:11.377Z,2.70
2022-11-05T14:02:42.345Z,2.83
2022-11-05T14:05:24.867Z,3.00
2022-11-05T14:07:58.906Z,2.70
2022-11-05T14:10:39.544Z,2.60
2022-11-05T14:13:26.881Z,2.92
2022-11-05T14:16:07.048Z,2.70
2022-11-05T14:18:43.762Z,3.40
2022-11-05T14:21:47.812Z,3.00
2022-11-05T14:24:22.661Z,2.92
2022-11-05T14:27:08.018Z,3.85
2022-11-05T14:29:46.111Z,3.15
2022-11-05T14:32:16.791Z,3.60
2022-11-05T14:35:03.321Z,3.13
2022-11-05T14:37:36.402Z,3.10
2022-11-05T14:40:46.220Z,3.20
2022-11-05T14:43:25.688Z,2.67
2022-11-05T14:45:58.064Z,2.70
2022-11-05T14:48:37.353Z,2.28
2022-11-05T14:51:36.420Z,2.70
2022-11-05T14:54:15.354Z,2.58
2022-11-05T14:56:56.901Z,2.88
2022-11-05T14:59:24.660Z,2.40
2022-11-05T15:02:09.496Z,2.65
2022-11-05T15:05:01.839Z,4.03
2022-11-05T15:07:37.241Z,5.50
2022-11-05T15:10:11.564Z,5.43
2022-11-05T15:12:41.376Z,2.63
2022-11-05T15:15:30.911Z,2.67
2022-11-05T15:18:12.094Z,2.60
2022-11-05T15:21:00.008Z,2.65
2022-11-05T15:23:42.264Z,2.95
2022-11-05T15:26:46.971Z,3.55
2022-11-05T15:29:18.220Z,3.00
2022-11-05T15:31:48.018Z,2.63
2022-11-05T15:34:17.697Z,3.30
2022-11-05T15:36:57.093Z,3.13
2022-11-05T15:39:40.143Z,3.25
2022-11-05T15:48:29.434Z,3.30
2022-11-05T15:51:01.723Z,2.75
2022-11-05T15:54:08.261Z,3.10
2022-11-05T15:56:37.128Z,4.47
2022-11-05T15:59:17.244Z,3.15
2022-11-05T16:02:07.731Z,2.63
2022-11-05T16:04:34.648Z,2.60
2022-11-05T16:07:10.126Z,2.28
2022-11-05T16:09:42.921Z,2.22
2022-11-05T16:12:17.994Z,3.83
2022-11-05T16:15:08.007Z,6.57
2022-11-05T16:17:59.390Z,7.25
2022-11-05T16:20:35.007Z,4.60
2022-11-05T16:23:07.230Z,4.10
2022-11-05T16:25:44.721Z,4.20
2022-11-05T16:28:28.440Z,3.40
2022-11-05T16:30:56.774Z,3.45
2022-11-05T16:33:43.257Z,3.05
2022-11-05T16:36:14.631Z,5.68
2022-11-05T16:38:41.663Z,9.70
2022-11-05T16:41:17.415Z,7.18
2022-11-05T16:44:10.638Z,13.40
2022-11-05T16:49:10.378Z,10.93
2022-11-05T16:54:09.765Z,12.77
2022-11-05T16:56:41.116Z,12.05
2022-11-05T16:59:11.816Z,11.25
2022-11-05T17:01:41.298Z,9.98
2022-11-05T17:04:11.402Z,11.02
2022-11-05T17:06:40.754Z,11.38
2022-11-05T17:09:08.283Z,11.68
2022-11-05T17:11:36.220Z,11.63
2022-11-05T17:14:12.243Z,12.52
2022-11-05T17:16:43.161Z,11.15
2022-11-05T17:19:15.174Z,11.13
2022-11-05T17:21:41.850Z,11.05
2022-11-05T17:24:08.468Z,10.75
2022-11-05T17:26:48.412Z,9.43
2022-11-05T17:29:28.458Z,9.63
2022-11-05T17:34:39.614Z,8.63
2022-11-05T17:37:06.584Z,9.80
2022-11-05T17:39:33.819Z,9.13
2022-11-05T17:42:00.709Z,8.70
2022-11-05T17:44:36.271Z,8.95
2022-11-05T17:47:04.421Z,7.72
2022-11-05T17:49:32.437Z,8.50
2022-11-05T17:52:01.741Z,7.35
2022-11-05T17:54:28.520Z,8.95
2022-11-05T18:00:01.169Z,8.23
2022-11-05T18:02:38.363Z,11.45
2022-11-05T18:05:05.892Z,13.15
2022-11-05T18:07:33.938Z,16.55
2022-11-05T18:10:00.892Z,17.25
2022-11-05T18:12:27.874Z,18.23
2022-11-05T18:14:54.442Z,18.75
2022-11-05T18:17:22.440Z,18.42
2022-11-05T18:19:49.266Z,16.33
2022-11-05T18:22:17.756Z,15.98
2022-11-05T18:24:45.448Z,15.80
2022-11-05T18:27:23.838Z,11.77
2022-11-05T18:29:54.394Z,11.30
2022-11-05T18:32:21.156Z,11.52
2022-11-05T18:34:47.936Z,11.55
2022-11-05T18:37:20.302Z,12.05
2022-11-05T18:39:53.091Z,14.05
2022-11-05T18:42:21.028Z,19.80
2022-11-05T18:44:51.022Z,18.92
2022-11-05T18:47:20.025Z,13.20
2022-11-05T18:49:46.939Z,10.32
2022-11-05T18:52:13.863Z,9.05
2022-11-05T18:54:40.849Z,8.57
2022-11-05T18:57:09.577Z,10.52
2022-11-05T18:59:41.424Z,11.68
2022-11-05T19:02:10.864Z,8.55
2022-11-05T19:04:37.826Z,8.30
2022-11-05T19:07:07.883Z,8.18
2022-11-05T19:09:41.186Z,8.30
2022-11-05T19:12:07.832Z,8.45
2022-11-05T19:14:38.012Z,8.27
2022-11-05T19:17:07.879Z,7.47
2022-11-05T19:19:35.053Z,8.48
2022-11-05T19:22:09.630Z,8.65
2022-11-05T19:24:38.555Z,9.82
2022-11-05T19:27:05.298Z,8.57
2022-11-05T19:29:38.079Z,9.25
2022-11-05T19:34:36.816Z,7.18
2022-11-05T19:37:06.474Z,7.65
2022-11-05T19:39:35.133Z,8.15
2022-11-05T19:42:03.740Z,8.80
2022-11-05T19:44:37.477Z,8.00
2022-11-05T19:47:08.534Z,8.48
2022-11-05T19:49:35.153Z,8.00
2022-11-05T19:52:01.923Z,8.85
2022-11-05T19:54:35.930Z,9.25
2022-11-05T19:57:05.575Z,8.45
2022-11-05T19:59:34.715Z,8.80
2022-11-05T20:02:01.405Z,8.38
2022-11-05T20:07:17.411Z,8.25
2022-11-05T20:09:44.066Z,8.82
2022-11-05T20:12:16.412Z,8.57
2022-11-05T20:17:50.912Z,8.20
2022-11-05T20:20:18.136Z,9.70
2022-11-05T20:22:50.262Z,10.77
2022-11-05T20:25:20.973Z,11.25
2022-11-05T20:27:50.053Z,11.63
2022-11-05T20:30:20.496Z,12.10
2022-11-05T20:32:53.409Z,10.13
2022-11-05T20:35:21.031Z,8.25
2022-11-05T20:37:52.835Z,8.02
2022-11-05T20:40:33.112Z,7.85
2022-11-05T20:43:08.877Z,7.95
2022-11-05T20:45:39.253Z,8.70
2022-11-05T20:48:05.938Z,9.40
2022-11-05T20:50:33.099Z,9.45
2022-11-05T20:53:02.694Z,11.55
2022-11-05T20:55:31.767Z,9.85
2022-11-05T20:58:00.916Z,13.05
2022-11-05T21:00:27.581Z,12.15
2022-11-05T21:02:56.940Z,11.63
2022-11-05T21:05:23.822Z,8.50
2022-11-05T21:07:53.731Z,8.32
2022-11-05T21:10:22.525Z,11.43
2022-11-05T21:12:49.168Z,8.23
2022-11-05T21:15:19.608Z,7.63
2022-11-05T21:17:46.448Z,8.45
2022-11-05T21:20:13.290Z,7.70
2022-11-05T21:22:42.359Z,6.40
2022-11-05T21:25:09.564Z,6.30
2022-11-05T21:27:39.991Z,5.28
2022-11-05T21:30:11.119Z,6.50
2022-11-05T21:32:43.340Z,6.97
2022-11-05T21:35:09.924Z,6.80
2022-11-05T21:37:36.594Z,7.57
2022-11-05T21:40:13.454Z,6.95
2022-11-05T21:42:42.232Z,6.93
2022-11-05T21:45:11.428Z,10.40
2022-11-05T21:47:55.852Z,8.85
2022-11-05T21:50:42.079Z,8.75
2022-11-05T21:53:36.602Z,8.20
2022-11-05T21:56:42.237Z,7.97
2022-11-05T21:59:31.377Z,7.57
2022-11-05T22:02:02.051Z,11.57
2022-11-05T22:04:30.574Z,14.93
2022-11-05T22:06:57.538Z,14.75
2022-11-05T22:09:25.227Z,18.67
2022-11-05T22:11:55.573Z,21.52
2022-11-05T22:14:22.982Z,17.73
2022-11-05T22:16:51.720Z,21.60
2022-11-05T22:19:23.505Z,21.17
2022-11-05T22:21:52.777Z,15.00
2022-11-05T22:24:20.330Z,17.55
2022-11-05T22:26:50.089Z,13.48
2022-11-05T22:29:20.535Z,13.80
2022-11-05T22:37:37.664Z,23.08
2022-11-05T22:40:11.293Z,14.15
2022-11-05T22:42:38.913Z,11.93
2022-11-05T22:45:06.004Z,10.65
2022-11-05T22:47:38.557Z,8.65
2022-11-05T22:50:06.372Z,16.42
2022-11-05T22:52:33.729Z,13.30
2022-11-05T22:55:03.019Z,14.00
2022-11-05T22:57:29.734Z,16.98
2022-11-05T22:59:59.640Z,15.35
2022-11-05T23:02:26.369Z,13.23
2022-11-05T23:04:53.155Z,13.82
2022-11-05T23:07:46.984Z,9.48
2022-11-05T23:10:33.349Z,11.02
2022-11-05T23:12:59.963Z,9.75
2022-11-05T23:15:45.320Z,7.03
2022-11-05T23:18:30.653Z,5.90
2022-11-05T23:21:19.244Z,7.20
2022-11-05T23:24:05.061Z,7.95
2022-11-05T23:26:52.199Z,8.43
2022-11-05T23:29:21.704Z,7.13
2022-11-05T23:32:07.871Z,8.05
2022-11-05T23:34:34.914Z,7.72
2022-11-05T23:37:20.189Z,11.65
2022-11-05T23:40:23.938Z,9.27
2022-11-05T23:43:16.066Z,9.45
2022-11-05T23:46:06.605Z,8.35
2022-11-05T23:48:37.088Z,8.93
2022-11-05T23:51:09.193Z,6.28
2022-11-05T23:53:41.720Z,6.97
2022-11-05T23:56:13.864Z,8.13
2022-11-05T23:58:41.427Z,5.18
